createdAt,value
2018-09-26T00:02:23.985Z,2.70
2018-09-26T00:04:59.301Z,2.47
2018-09-26T00:07:34.488Z,2.40
2018-09-26T00:10:09.545Z,2.50
2018-09-26T00:12:44.988Z,2.97
2018-09-26T00:15:20.477Z,2.60
2018-09-26T00:17:55.398Z,2.70
2018-09-26T00:20:30.503Z,2.83
2018-09-26T00:23:05.890Z,3.00
2018-09-26T00:25:41.105Z,3.07
2018-09-26T00:28:17.132Z,2.50
2018-09-26T00:30:53.224Z,2.70
2018-09-26T00:33:29.890Z,2.90
2018-09-26T00:36:05.298Z,3.00
2018-09-26T00:38:40.125Z,2.77
2018-09-26T00:41:16.091Z,2.70
2018-09-26T00:43:51.010Z,2.73
2018-09-26T00:46:26.108Z,2.80
2018-09-26T00:49:01.121Z,2.70
2018-09-26T00:51:39.639Z,3.00
2018-09-26T00:54:15.824Z,2.73
2018-09-26T00:56:54.397Z,2.90
2018-09-26T00:59:29.111Z,2.90
2018-09-26T01:02:03.941Z,2.70
2018-09-26T01:04:38.478Z,3.00
2018-09-26T01:07:13.264Z,2.57
2018-09-26T01:09:48.241Z,2.87
2018-09-26T01:12:22.704Z,3.00
2018-09-26T01:14:57.290Z,2.70
2018-09-26T01:17:31.755Z,2.87
2018-09-26T01:20:06.477Z,3.03
2018-09-26T01:22:40.974Z,2.70
2018-09-26T01:25:15.777Z,2.83
2018-09-26T01:27:50.319Z,2.77
2018-09-26T01:30:24.872Z,2.50
2018-09-26T01:32:59.559Z,2.53
2018-09-26T01:35:33.949Z,2.93
2018-09-26T01:38:08.584Z,2.43
2018-09-26T01:40:43.152Z,2.60
2018-09-26T01:43:17.998Z,2.73
2018-09-26T01:45:52.572Z,2.83
2018-09-26T01:48:27.097Z,2.60
2018-09-26T01:51:01.703Z,2.60
2018-09-26T01:53:36.114Z,2.80
2018-09-26T01:56:10.839Z,3.13
2018-09-26T01:58:45.629Z,2.70
2018-09-26T02:01:20.334Z,3.37
2018-09-26T02:03:54.739Z,2.63
2018-09-26T02:06:29.202Z,2.70
2018-09-26T02:09:05.875Z,2.50
2018-09-26T02:11:40.461Z,2.70
2018-09-26T02:14:15.350Z,2.60
2018-09-26T02:16:49.766Z,2.43
2018-09-26T02:19:24.312Z,2.80
2018-09-26T02:21:58.861Z,2.60
2018-09-26T02:24:34.259Z,2.80
2018-09-26T02:27:08.801Z,2.67
2018-09-26T02:29:43.389Z,3.13
2018-09-26T02:32:18.053Z,2.90
2018-09-26T02:34:52.498Z,3.43
2018-09-26T02:37:27.175Z,3.00
2018-09-26T02:40:01.731Z,2.67
2018-09-26T02:42:36.158Z,2.73
2018-09-26T02:45:10.708Z,2.70
2018-09-26T02:47:45.160Z,3.23
2018-09-26T02:50:19.720Z,2.70
2018-09-26T02:52:54.239Z,2.80
2018-09-26T02:55:28.856Z,2.77
2018-09-26T02:58:03.438Z,2.60
2018-09-26T03:00:38.054Z,2.70
2018-09-26T03:03:12.656Z,3.07
2018-09-26T03:05:47.246Z,2.97
2018-09-26T03:08:21.773Z,3.13
2018-09-26T03:10:56.738Z,2.70
2018-09-26T03:13:31.288Z,2.60
2018-09-26T03:16:05.981Z,3.10
2018-09-26T03:18:40.332Z,2.90
2018-09-26T03:21:14.609Z,2.80
2018-09-26T03:23:48.995Z,2.73
2018-09-26T03:26:23.705Z,2.93
2018-09-26T03:28:58.321Z,2.97
2018-09-26T03:31:33.026Z,3.10
2018-09-26T03:34:07.769Z,2.70
2018-09-26T03:36:42.275Z,2.50
2018-09-26T03:39:17.207Z,2.70
2018-09-26T03:41:51.856Z,2.87
2018-09-26T03:44:26.411Z,3.07
2018-09-26T03:47:01.067Z,3.17
2018-09-26T03:49:35.468Z,2.80
2018-09-26T03:52:10.399Z,3.00
2018-09-26T03:54:45.045Z,3.00
2018-09-26T03:57:19.679Z,2.83
2018-09-26T03:59:54.283Z,2.93
2018-09-26T04:02:29.494Z,2.67
2018-09-26T04:05:04.542Z,2.73
2018-09-26T04:07:39.146Z,3.27
2018-09-26T04:10:15.057Z,2.50
2018-09-26T04:12:49.839Z,3.03
2018-09-26T04:15:24.308Z,2.70
2018-09-26T04:17:59.314Z,3.10
2018-09-26T04:20:33.793Z,3.20
2018-09-26T04:23:08.390Z,3.00
2018-09-26T04:25:42.806Z,3.00
2018-09-26T04:28:17.475Z,2.87
2018-09-26T04:30:52.230Z,3.07
2018-09-26T04:33:26.554Z,3.27
2018-09-26T04:36:01.436Z,3.83
2018-09-26T04:38:36.016Z,3.23
2018-09-26T04:41:10.658Z,3.60
2018-09-26T04:43:45.170Z,3.67
2018-09-26T04:46:19.938Z,3.53
2018-09-26T04:48:54.588Z,3.70
2018-09-26T04:51:29.349Z,3.50
2018-09-26T04:54:04.075Z,3.40
2018-09-26T04:56:38.767Z,3.40
2018-09-26T04:59:13.279Z,3.50
2018-09-26T05:01:47.840Z,3.33
2018-09-26T05:04:22.265Z,3.60
2018-09-26T05:07:01.405Z,3.63
2018-09-26T05:09:36.265Z,3.30
2018-09-26T05:12:11.034Z,3.30
2018-09-26T05:14:45.651Z,3.20
2018-09-26T05:17:20.201Z,3.23
2018-09-26T05:19:54.588Z,2.70
2018-09-26T05:22:29.267Z,2.97
2018-09-26T05:25:03.580Z,3.00
2018-09-26T05:27:37.987Z,3.30
2018-09-26T05:30:12.638Z,2.90
2018-09-26T05:32:47.369Z,3.37
2018-09-26T05:35:21.874Z,3.43
2018-09-26T05:37:56.733Z,3.13
2018-09-26T05:40:31.380Z,3.63
2018-09-26T05:43:05.870Z,3.50
2018-09-26T05:45:40.574Z,2.97
2018-09-26T05:48:15.057Z,3.43
2018-09-26T05:50:49.635Z,3.33
2018-09-26T05:53:24.224Z,3.50
2018-09-26T05:55:58.739Z,3.60
2018-09-26T05:58:33.540Z,3.30
2018-09-26T06:01:08.346Z,3.77
2018-09-26T06:03:42.818Z,3.93
2018-09-26T06:06:17.320Z,3.50
2018-09-26T06:08:51.796Z,3.70
2018-09-26T06:11:26.361Z,4.00
2018-09-26T06:14:00.760Z,4.00
2018-09-26T06:16:35.406Z,3.30
2018-09-26T06:19:10.525Z,3.73
2018-09-26T06:21:45.044Z,3.97
2018-09-26T06:24:19.437Z,3.93
2018-09-26T06:26:53.994Z,4.70
2018-09-26T06:29:28.454Z,4.70
2018-09-26T06:32:03.146Z,5.20
2018-09-26T06:34:38.114Z,4.60
2018-09-26T06:37:12.473Z,4.60
2018-09-26T06:39:47.007Z,5.00
2018-09-26T06:42:21.504Z,4.70
2018-09-26T06:44:55.884Z,4.30
2018-09-26T06:47:30.391Z,4.90
2018-09-26T06:50:05.261Z,5.00
2018-09-26T06:52:39.779Z,5.43
2018-09-26T06:55:14.447Z,5.13
2018-09-26T06:57:49.082Z,4.90
2018-09-26T07:00:23.711Z,4.90
2018-09-26T07:02:58.433Z,4.57
2018-09-26T07:05:32.796Z,4.50
2018-09-26T07:08:07.342Z,5.40
2018-09-26T07:10:41.941Z,4.47
2018-09-26T07:13:16.768Z,5.20
2018-09-26T07:15:51.711Z,4.63
2018-09-26T07:18:26.190Z,4.63
2018-09-26T07:21:00.689Z,4.57
2018-09-26T07:23:35.040Z,4.00
2018-09-26T07:26:09.437Z,4.33
2018-09-26T07:28:43.990Z,4.37
2018-09-26T07:31:18.629Z,4.23
2018-09-26T07:33:53.131Z,3.93
2018-09-26T07:36:27.674Z,3.70
2018-09-26T07:39:02.280Z,3.67
2018-09-26T07:41:37.018Z,4.20
2018-09-26T07:44:11.282Z,3.27
2018-09-26T07:46:45.746Z,3.80
2018-09-26T07:49:20.176Z,5.27
2018-09-26T07:51:54.656Z,4.43
2018-09-26T07:54:29.166Z,3.80
2018-09-26T07:57:03.782Z,4.27
2018-09-26T07:59:38.090Z,4.17
2018-09-26T08:02:12.836Z,4.30
2018-09-26T08:04:47.350Z,4.10
2018-09-26T08:07:21.988Z,4.40
2018-09-26T08:09:56.565Z,3.83
2018-09-26T08:12:31.070Z,3.90
2018-09-26T08:15:05.591Z,4.43
2018-09-26T08:17:40.111Z,3.87
2018-09-26T08:20:14.977Z,4.00
2018-09-26T08:22:49.564Z,3.37
2018-09-26T08:25:24.160Z,3.63
2018-09-26T08:27:58.601Z,3.20
2018-09-26T08:30:33.017Z,3.43
2018-09-26T08:33:07.490Z,3.30
2018-09-26T08:35:42.510Z,3.60
2018-09-26T08:38:17.224Z,3.00
2018-09-26T08:40:51.630Z,3.07
2018-09-26T08:43:26.197Z,2.70
2018-09-26T08:46:00.801Z,2.60
2018-09-26T08:48:35.396Z,2.87
2018-09-26T08:51:09.750Z,2.30
2018-09-26T08:53:44.360Z,2.60
2018-09-26T08:56:18.751Z,2.70
2018-09-26T08:58:53.344Z,2.60
2018-09-26T09:01:33.276Z,2.60
2018-09-26T09:04:25.798Z,2.57
2018-09-26T09:07:30.471Z,2.30
2018-09-26T09:10:05.108Z,2.50
2018-09-26T09:12:39.705Z,2.83
2018-09-26T09:15:15.283Z,2.53
2018-09-26T09:17:49.909Z,2.30
2018-09-26T09:20:24.608Z,2.17
2018-09-26T09:22:59.589Z,2.17
2018-09-26T09:25:34.083Z,2.20
2018-09-26T09:28:08.744Z,2.20
2018-09-26T09:30:43.859Z,2.00
2018-09-26T09:33:18.544Z,2.27
2018-09-26T09:35:53.127Z,2.30
2018-09-26T09:38:27.728Z,2.60
2018-09-26T09:41:02.261Z,2.43
2018-09-26T09:43:36.730Z,2.50
2018-09-26T09:46:11.235Z,2.43
2018-09-26T09:48:45.750Z,2.17
2018-09-26T09:51:20.448Z,2.80
2018-09-26T09:53:54.997Z,2.47
2018-09-26T09:56:29.497Z,2.60
2018-09-26T09:59:04.146Z,2.90
2018-09-26T10:01:38.859Z,2.80
2018-09-26T10:04:13.380Z,2.70
2018-09-26T10:06:47.954Z,2.70
2018-09-26T10:09:23.133Z,2.77
2018-09-26T10:11:58.044Z,2.40
2018-09-26T10:14:32.601Z,2.40
2018-09-26T10:17:07.941Z,2.83
2018-09-26T10:19:42.453Z,2.60
2018-09-26T10:22:17.196Z,2.60
2018-09-26T10:24:51.902Z,2.80
2018-09-26T10:27:26.457Z,3.07
2018-09-26T10:30:01.227Z,2.90
2018-09-26T10:32:35.920Z,2.43
2018-09-26T10:35:10.488Z,2.70
2018-09-26T10:37:44.896Z,2.50
2018-09-26T10:40:19.499Z,2.27
2018-09-26T10:42:54.313Z,2.50
2018-09-26T10:45:28.920Z,2.43
2018-09-26T10:48:03.426Z,2.40
2018-09-26T10:50:38.061Z,2.30
2018-09-26T10:53:12.390Z,2.40
2018-09-26T10:55:46.984Z,2.40
2018-09-26T10:58:21.789Z,2.30
2018-09-26T11:00:57.208Z,2.73
2018-09-26T11:03:32.014Z,2.10
2018-09-26T11:06:06.559Z,2.67
2018-09-26T11:08:41.209Z,2.17
2018-09-26T11:11:16.003Z,2.13
2018-09-26T11:13:50.755Z,2.40
2018-09-26T11:16:25.293Z,2.37
2018-09-26T11:18:59.758Z,2.43
2018-09-26T11:21:34.249Z,2.27
2018-09-26T11:24:08.888Z,2.30
2018-09-26T11:26:43.881Z,2.40
2018-09-26T11:29:18.256Z,2.17
2018-09-26T11:31:53.081Z,2.10
2018-09-26T11:34:27.997Z,2.60
2018-09-26T11:37:02.458Z,2.20
2018-09-26T11:39:36.909Z,2.10
2018-09-26T11:42:11.632Z,2.00
2018-09-26T11:44:46.835Z,1.90
2018-09-26T11:47:21.332Z,2.03
2018-09-26T11:49:55.882Z,1.67
2018-09-26T11:52:30.489Z,1.73
2018-09-26T11:55:05.130Z,2.00
2018-09-26T11:57:39.768Z,1.97
2018-09-26T12:00:15.095Z,2.00
2018-09-26T12:02:51.096Z,1.80
2018-09-26T12:05:25.677Z,1.80
2018-09-26T12:08:00.324Z,2.00
2018-09-26T12:10:34.870Z,2.20
2018-09-26T12:13:09.369Z,2.20
2018-09-26T12:15:43.848Z,1.73
2018-09-26T12:18:18.419Z,1.90
2018-09-26T12:20:52.878Z,1.90
2018-09-26T12:23:27.365Z,1.87
2018-09-26T12:26:02.208Z,1.93
2018-09-26T12:28:37.326Z,1.90
2018-09-26T12:31:11.883Z,1.70
2018-09-26T12:33:46.351Z,1.80
2018-09-26T12:36:20.878Z,1.80
2018-09-26T12:38:55.328Z,1.70
2018-09-26T12:41:29.823Z,1.70
2018-09-26T12:44:04.253Z,1.87
2018-09-26T12:46:38.596Z,1.80
2018-09-26T12:49:13.348Z,1.97
2018-09-26T12:51:47.998Z,1.87
2018-09-26T12:54:22.544Z,1.77
2018-09-26T12:56:57.035Z,1.50
2018-09-26T12:59:31.453Z,1.67
2018-09-26T13:02:06.121Z,1.60
2018-09-26T13:04:40.676Z,1.47
2018-09-26T13:07:15.208Z,1.70
2018-09-26T13:09:49.839Z,1.77
2018-09-26T13:12:24.430Z,1.90
2018-09-26T13:14:58.806Z,1.57
2018-09-26T13:17:33.680Z,1.80
2018-09-26T13:20:08.287Z,1.60
2018-09-26T13:22:42.720Z,1.67
2018-09-26T13:25:19.473Z,1.80
2018-09-26T13:27:53.988Z,1.77
2018-09-26T13:30:28.564Z,1.87
2018-09-26T13:33:03.155Z,1.80
2018-09-26T13:35:37.598Z,1.70
2018-09-26T13:38:12.688Z,1.40
2018-09-26T13:40:47.160Z,1.97
2018-09-26T13:43:22.679Z,1.80
2018-09-26T13:45:57.392Z,1.80
2018-09-26T13:48:31.803Z,1.80
2018-09-26T13:51:06.588Z,1.70
2018-09-26T13:53:41.082Z,1.97
2018-09-26T13:56:15.689Z,1.70
2018-09-26T13:58:50.517Z,1.50
2018-09-26T14:01:24.875Z,1.90
2018-09-26T14:03:59.812Z,2.10
2018-09-26T14:06:34.435Z,1.80
2018-09-26T14:09:09.024Z,1.80
2018-09-26T14:11:43.419Z,1.53
2018-09-26T14:14:17.984Z,1.40
2018-09-26T14:16:52.331Z,1.80
2018-09-26T14:19:29.308Z,1.70
2018-09-26T14:22:04.714Z,1.60
2018-09-26T14:24:39.930Z,1.40
2018-09-26T14:27:15.423Z,1.67
2018-09-26T14:29:50.879Z,1.77
2018-09-26T14:32:25.677Z,1.70
2018-09-26T14:35:00.235Z,2.10
2018-09-26T14:37:34.638Z,1.90
2018-09-26T14:40:09.948Z,2.00
2018-09-26T14:42:44.608Z,1.90
2018-09-26T14:45:19.466Z,1.70
2018-09-26T14:47:54.122Z,1.83
2018-09-26T14:50:28.702Z,1.77
2018-09-26T14:53:03.439Z,1.73
2018-09-26T14:55:37.994Z,1.80
2018-09-26T14:58:13.071Z,1.73
2018-09-26T15:00:47.596Z,1.83
2018-09-26T15:03:22.323Z,1.53
2018-09-26T15:05:57.138Z,1.63
2018-09-26T15:08:31.844Z,2.03
2018-09-26T15:11:06.787Z,1.60
2018-09-26T15:13:41.190Z,1.70
2018-09-26T15:16:16.738Z,1.70
2018-09-26T15:18:51.561Z,1.73
2018-09-26T15:21:26.039Z,1.60
2018-09-26T15:24:00.576Z,1.70
2018-09-26T15:26:35.035Z,1.53
2018-09-26T15:29:09.584Z,1.80
2018-09-26T15:31:44.037Z,1.93
2018-09-26T15:34:18.892Z,1.77
2018-09-26T15:36:53.354Z,1.40
2018-09-26T15:39:28.016Z,1.77
2018-09-26T15:42:02.654Z,1.60
2018-09-26T15:44:37.505Z,2.10
2018-09-26T15:47:12.069Z,1.63
2018-09-26T15:49:46.758Z,1.60
2018-09-26T15:52:21.455Z,1.60
2018-09-26T15:54:55.913Z,1.50
2018-09-26T15:57:30.592Z,1.67
2018-09-26T16:00:05.399Z,1.80
2018-09-26T16:02:40.102Z,1.53
2018-09-26T16:05:16.617Z,1.50
2018-09-26T16:07:51.872Z,1.77
2018-09-26T16:10:27.467Z,1.60
2018-09-26T16:13:02.321Z,1.50
2018-09-26T16:15:38.139Z,1.50
2018-09-26T16:18:13.863Z,1.60
2018-09-26T16:20:51.043Z,1.70
2018-09-26T16:23:26.645Z,1.50
2018-09-26T16:26:01.384Z,1.47
2018-09-26T16:28:35.898Z,1.50
2018-09-26T16:31:10.322Z,1.77
2018-09-26T16:33:44.941Z,1.50
2018-09-26T16:36:20.500Z,1.27
2018-09-26T16:38:54.790Z,1.27
2018-09-26T16:41:29.325Z,1.77
2018-09-26T16:44:04.642Z,1.60
2018-09-26T16:46:39.627Z,1.57
2018-09-26T16:49:14.224Z,1.70
2018-09-26T16:51:48.610Z,1.67
2018-09-26T16:54:23.201Z,1.53
2018-09-26T16:56:57.476Z,1.93
2018-09-26T16:59:31.920Z,1.70
2018-09-26T17:02:06.647Z,2.47
2018-09-26T17:04:41.063Z,2.30
2018-09-26T17:07:15.580Z,2.10
2018-09-26T17:09:50.118Z,1.90
2018-09-26T17:12:29.461Z,2.00
2018-09-26T17:15:03.944Z,2.00
2018-09-26T17:17:38.503Z,1.93
2018-09-26T17:20:13.024Z,2.07
2018-09-26T17:22:47.832Z,2.37
2018-09-26T17:25:22.405Z,2.40
2018-09-26T17:27:56.843Z,2.40
2018-09-26T17:30:31.464Z,2.30
2018-09-26T17:33:05.916Z,2.20
2018-09-26T17:35:40.511Z,2.10
2018-09-26T17:38:15.227Z,2.17
2018-09-26T17:40:49.815Z,2.43
2018-09-26T17:43:24.553Z,2.63
2018-09-26T17:45:58.821Z,2.60
2018-09-26T17:48:33.261Z,2.40
2018-09-26T17:51:07.897Z,2.50
2018-09-26T17:53:42.128Z,2.30
2018-09-26T17:56:16.688Z,2.33
2018-09-26T17:58:51.203Z,2.47
2018-09-26T18:01:27.681Z,2.43
2018-09-26T18:04:01.981Z,2.13
2018-09-26T18:06:36.748Z,2.50
2018-09-26T18:09:11.815Z,2.33
2018-09-26T18:11:46.257Z,2.37
2018-09-26T18:14:20.770Z,2.47
2018-09-26T18:16:55.356Z,2.40
2018-09-26T18:19:30.100Z,2.50
2018-09-26T18:22:04.657Z,2.47
2018-09-26T18:24:39.225Z,3.17
2018-09-26T18:27:13.907Z,2.77
2018-09-26T18:29:48.535Z,2.47
2018-09-26T18:32:23.078Z,2.10
2018-09-26T18:34:57.720Z,2.30
2018-09-26T18:37:32.360Z,2.60
2018-09-26T18:40:07.219Z,2.30
2018-09-26T18:42:41.826Z,3.93
2018-09-26T18:45:16.569Z,2.90
2018-09-26T18:47:51.494Z,2.50
2018-09-26T18:50:26.019Z,3.10
2018-09-26T18:53:00.474Z,6.30
2018-09-26T18:55:35.059Z,4.93
2018-09-26T18:58:09.540Z,4.33
2018-09-26T19:00:44.818Z,4.70
2018-09-26T19:03:19.496Z,4.87
2018-09-26T19:05:54.136Z,4.83
2018-09-26T19:08:28.478Z,4.97
2018-09-26T19:11:03.095Z,5.07
2018-09-26T19:13:38.385Z,4.70
2018-09-26T19:16:13.007Z,4.70
2018-09-26T19:18:47.440Z,4.70
2018-09-26T19:21:21.988Z,4.57
2018-09-26T19:23:56.535Z,3.93
2018-09-26T19:26:31.353Z,4.10
2018-09-26T19:29:05.900Z,3.47
2018-09-26T19:31:40.342Z,3.73
2018-09-26T19:34:15.072Z,3.37
2018-09-26T19:36:49.724Z,2.80
2018-09-26T19:39:24.444Z,3.13
2018-09-26T19:41:59.081Z,3.20
2018-09-26T19:44:33.430Z,3.03
2018-09-26T19:47:08.030Z,3.10
2018-09-26T19:49:42.418Z,3.40
2018-09-26T19:52:17.658Z,3.00
2018-09-26T19:54:52.056Z,3.07
2018-09-26T19:57:26.404Z,3.70
2018-09-26T20:00:00.659Z,3.37
2018-09-26T20:02:35.113Z,3.43
2018-09-26T20:05:09.734Z,3.60
2018-09-26T20:07:44.179Z,3.47
2018-09-26T20:10:18.869Z,3.20
2018-09-26T20:12:53.269Z,3.50
2018-09-26T20:15:27.708Z,3.40
2018-09-26T20:18:02.267Z,3.77
2018-09-26T20:20:36.772Z,3.40
2018-09-26T20:23:11.288Z,3.73
2018-09-26T20:25:45.699Z,4.07
2018-09-26T20:28:20.537Z,3.43
2018-09-26T20:30:55.137Z,3.67
2018-09-26T20:33:29.609Z,3.70
2018-09-26T20:36:04.472Z,3.77
2018-09-26T20:38:38.906Z,3.60
2018-09-26T20:41:13.508Z,3.63
2018-09-26T20:43:47.933Z,4.00
2018-09-26T20:46:22.638Z,3.87
2018-09-26T20:48:57.619Z,4.23
2018-09-26T20:51:32.349Z,4.00
2018-09-26T20:54:07.007Z,4.27
2018-09-26T20:56:41.673Z,4.40
2018-09-26T20:59:16.451Z,4.03
2018-09-26T21:01:50.964Z,3.73
2018-09-26T21:04:25.724Z,3.87
2018-09-26T21:07:00.237Z,3.90
2018-09-26T21:09:34.615Z,4.37
2018-09-26T21:12:09.115Z,4.67
2018-09-26T21:14:43.922Z,5.07
2018-09-26T21:17:18.868Z,4.63
2018-09-26T21:19:53.249Z,5.07
2018-09-26T21:22:27.763Z,4.47
2018-09-26T21:25:02.274Z,4.33
2018-09-26T21:27:36.780Z,5.27
2018-09-26T21:30:11.332Z,4.80
2018-09-26T21:32:45.988Z,4.47
2018-09-26T21:35:20.638Z,4.53
2018-09-26T21:37:55.030Z,4.60
2018-09-26T21:40:29.611Z,4.50
2018-09-26T21:43:04.495Z,4.47
2018-09-26T21:45:38.914Z,5.10
2018-09-26T21:48:13.305Z,4.47
2018-09-26T21:50:47.798Z,4.87
2018-09-26T21:53:22.432Z,4.70
2018-09-26T21:55:56.725Z,5.27
2018-09-26T21:58:31.136Z,4.93
2018-09-26T22:01:10.062Z,5.10
2018-09-26T22:03:44.697Z,5.00
2018-09-26T22:06:19.374Z,5.30
2018-09-26T22:08:53.861Z,5.60
2018-09-26T22:11:28.772Z,5.90
2018-09-26T22:14:03.328Z,5.53
2018-09-26T22:16:38.377Z,5.97
2018-09-26T22:19:12.902Z,6.00
2018-09-26T22:21:47.349Z,6.00
2018-09-26T22:24:22.025Z,5.63
2018-09-26T22:26:56.681Z,5.50
2018-09-26T22:29:31.205Z,6.00
2018-09-26T22:32:06.298Z,5.50
2018-09-26T22:34:40.958Z,5.27
2018-09-26T22:37:15.423Z,5.47
2018-09-26T22:39:49.976Z,5.70
2018-09-26T22:42:24.438Z,5.27
2018-09-26T22:44:59.090Z,5.97
2018-09-26T22:47:33.551Z,5.27
2018-09-26T22:50:07.963Z,6.07
2018-09-26T22:52:42.626Z,5.70
2018-09-26T22:55:17.309Z,5.57
2018-09-26T22:57:51.945Z,5.27
2018-09-26T23:00:26.515Z,5.83
2018-09-26T23:03:01.006Z,6.27
2018-09-26T23:05:35.454Z,5.40
2018-09-26T23:08:09.974Z,6.17
2018-09-26T23:10:44.702Z,5.67
2018-09-26T23:13:19.587Z,5.63
2018-09-26T23:15:54.134Z,5.60
2018-09-26T23:18:28.638Z,5.87
2018-09-26T23:21:03.166Z,6.20
2018-09-26T23:23:37.958Z,5.43
2018-09-26T23:26:12.386Z,5.60
2018-09-26T23:28:46.834Z,5.73
2018-09-26T23:31:21.213Z,5.60
2018-09-26T23:33:55.731Z,5.77
2018-09-26T23:36:30.057Z,6.07
2018-09-26T23:39:06.339Z,5.90
2018-09-26T23:41:40.819Z,6.10
2018-09-26T23:44:15.510Z,5.63
2018-09-26T23:46:49.996Z,5.57
2018-09-26T23:49:24.442Z,5.40
2018-09-26T23:51:59.499Z,5.40
2018-09-26T23:54:34.225Z,5.83
2018-09-26T23:57:08.534Z,5.23
2018-09-26T23:59:43.239Z,5.70
